createdAt,value
2022-12-27T00:03:54.296Z,32.70
2022-12-27T00:08:54.316Z,37.10
2022-12-27T00:13:54.349Z,37.10
2022-12-27T00:18:54.317Z,32.50
2022-12-27T00:23:54.312Z,32.50
2022-12-27T00:28:54.349Z,41.00
2022-12-27T00:33:54.338Z,41.00
2022-12-27T00:38:54.320Z,41.40
2022-12-27T00:43:54.357Z,41.40
2022-12-27T00:48:54.436Z,45.20
2022-12-27T00:53:54.322Z,45.20
2022-12-27T00:58:54.379Z,42.80
2022-12-27T01:03:54.377Z,42.80
2022-12-27T01:08:54.353Z,42.80
2022-12-27T01:13:54.376Z,42.80
2022-12-27T01:18:54.360Z,38.40
2022-12-27T01:23:54.358Z,38.40
2022-12-27T01:28:54.405Z,37.20
2022-12-27T01:33:54.377Z,37.20
2022-12-27T01:38:54.406Z,36.20
2022-12-27T01:43:54.397Z,36.20
2022-12-27T01:48:54.387Z,37.00
2022-12-27T01:53:54.355Z,37.00
2022-12-27T01:58:54.392Z,38.00
2022-12-27T02:03:54.368Z,38.00
2022-12-27T02:08:54.356Z,36.50
2022-12-27T02:13:54.381Z,36.50
2022-12-27T02:18:54.414Z,37.70
2022-12-27T02:23:54.375Z,37.70
2022-12-27T02:28:54.398Z,37.50
2022-12-27T02:33:54.359Z,37.50
2022-12-27T02:38:54.378Z,29.10
2022-12-27T02:43:54.410Z,29.10
2022-12-27T02:48:54.387Z,26.70
2022-12-27T02:53:54.402Z,26.70
2022-12-27T02:58:54.375Z,28.50
2022-12-27T03:03:54.398Z,28.50
2022-12-27T03:08:54.365Z,23.40
2022-12-27T03:13:54.381Z,23.40
2022-12-27T03:18:54.423Z,21.60
2022-12-27T03:23:54.374Z,21.60
2022-12-27T03:28:54.378Z,13.40
2022-12-27T03:33:54.578Z,13.40
2022-12-27T03:38:54.670Z,9.80
2022-12-27T03:43:54.463Z,9.80
2022-12-27T03:48:54.470Z,8.20
2022-12-27T03:53:54.407Z,8.20
2022-12-27T03:58:54.403Z,6.30
2022-12-27T04:03:54.697Z,6.30
2022-12-27T04:08:54.394Z,6.20
2022-12-27T04:13:54.455Z,6.20
2022-12-27T04:18:54.490Z,6.90
2022-12-27T04:23:54.449Z,6.90
2022-12-27T04:28:54.448Z,5.40
2022-12-27T04:33:54.432Z,5.40
2022-12-27T04:38:54.408Z,6.00
2022-12-27T04:43:54.450Z,6.00
2022-12-27T04:48:54.425Z,5.70
2022-12-27T04:58:54.467Z,5.70
2022-12-27T05:03:54.459Z,5.80
2022-12-27T05:08:54.435Z,5.80
2022-12-27T05:13:54.447Z,5.40
2022-12-27T05:18:54.435Z,5.40
2022-12-27T05:23:55.360Z,5.40
2022-12-27T05:28:54.457Z,5.40
2022-12-27T05:33:54.466Z,5.70
2022-12-27T05:38:54.468Z,5.70
2022-12-27T05:43:54.463Z,6.40
2022-12-27T05:48:54.583Z,6.40
2022-12-27T05:53:54.457Z,5.10
2022-12-27T05:58:54.498Z,5.10
2022-12-27T06:03:54.442Z,4.70
2022-12-27T06:08:54.580Z,4.70
2022-12-27T06:13:54.476Z,5.10
2022-12-27T06:18:54.478Z,5.10
2022-12-27T06:23:54.473Z,5.30
2022-12-27T06:28:54.488Z,5.30
2022-12-27T06:33:54.489Z,4.60
2022-12-27T06:38:54.449Z,4.60
2022-12-27T06:43:54.503Z,4.90
2022-12-27T06:48:54.601Z,4.90
2022-12-27T06:53:54.529Z,4.40
2022-12-27T06:58:54.464Z,4.40
2022-12-27T07:03:54.516Z,4.10
2022-12-27T07:08:54.488Z,4.10
2022-12-27T07:13:54.517Z,4.00
2022-12-27T07:18:54.511Z,4.00
2022-12-27T07:23:54.503Z,3.20
2022-12-27T07:28:54.486Z,3.20
2022-12-27T07:33:54.486Z,3.50
2022-12-27T07:38:54.687Z,3.50
2022-12-27T07:43:54.501Z,3.90
2022-12-27T07:48:54.588Z,3.90
2022-12-27T07:53:54.542Z,3.60
2022-12-27T07:58:54.512Z,3.60
2022-12-27T08:08:54.510Z,2.90
2022-12-27T08:13:54.498Z,3.50
2022-12-27T08:18:54.522Z,3.50
2022-12-27T08:23:54.524Z,4.40
2022-12-27T08:28:54.527Z,4.40
2022-12-27T08:33:58.395Z,3.30
2022-12-27T08:38:54.547Z,3.30
2022-12-27T08:43:54.576Z,3.00
2022-12-27T08:48:54.503Z,3.00
2022-12-27T08:53:54.548Z,2.50
2022-12-27T08:58:54.524Z,2.50
2022-12-27T09:03:57.569Z,2.60
2022-12-27T09:08:55.730Z,2.60
2022-12-27T09:13:54.551Z,2.90
2022-12-27T09:18:54.565Z,2.90
2022-12-27T09:23:54.514Z,3.00
2022-12-27T09:28:54.554Z,3.00
2022-12-27T09:33:54.605Z,2.70
2022-12-27T09:38:54.514Z,2.70
2022-12-27T09:43:54.570Z,2.10
2022-12-27T09:48:54.585Z,2.10
2022-12-27T09:53:54.572Z,2.80
2022-12-27T09:58:54.583Z,2.80
2022-12-27T10:03:54.569Z,2.90
2022-12-27T10:08:54.596Z,2.90
2022-12-27T10:13:54.633Z,2.90
2022-12-27T10:19:00.505Z,2.90
2022-12-27T10:23:55.892Z,2.20
2022-12-27T10:28:57.118Z,2.20
2022-12-27T10:33:54.919Z,4.60
2022-12-27T10:38:54.948Z,4.60
2022-12-27T10:43:54.577Z,2.70
2022-12-27T10:49:20.175Z,2.70
2022-12-27T10:53:54.763Z,3.10
2022-12-27T10:58:59.041Z,3.10
2022-12-27T11:03:54.733Z,2.70
2022-12-27T11:08:54.829Z,2.70
2022-12-27T11:13:54.721Z,3.00
2022-12-27T11:18:54.725Z,3.00
2022-12-27T11:23:54.627Z,3.10
2022-12-27T11:28:54.666Z,3.10
2022-12-27T11:33:54.633Z,3.20
2022-12-27T11:38:54.635Z,3.20
2022-12-27T11:43:54.930Z,3.00
2022-12-27T11:48:55.000Z,3.00
2022-12-27T11:53:56.451Z,2.60
2022-12-27T11:58:54.704Z,2.60
2022-12-27T12:03:54.643Z,4.00
2022-12-27T12:08:54.621Z,4.00
2022-12-27T12:13:54.610Z,3.80
2022-12-27T12:18:54.708Z,3.80
2022-12-27T12:23:54.821Z,3.20
2022-12-27T12:28:59.348Z,3.20
2022-12-27T12:33:54.701Z,3.30
2022-12-27T12:38:54.820Z,3.30
2022-12-27T12:43:54.752Z,4.50
2022-12-27T12:48:54.813Z,4.50
2022-12-27T12:53:54.870Z,3.20
2022-12-27T12:58:54.702Z,3.20
2022-12-27T13:03:54.826Z,4.50
2022-12-27T13:08:55.310Z,4.50
2022-12-27T13:13:54.750Z,3.10
2022-12-27T13:18:54.820Z,3.10
2022-12-27T13:23:54.851Z,4.00
2022-12-27T13:28:54.928Z,4.00
2022-12-27T13:33:54.993Z,4.60
2022-12-27T13:38:54.798Z,4.60
2022-12-27T13:43:54.962Z,4.40
2022-12-27T13:48:54.858Z,4.40
2022-12-27T13:53:56.839Z,3.60
2022-12-27T13:58:59.549Z,3.60
2022-12-27T14:03:54.699Z,4.60
2022-12-27T14:08:57.199Z,4.60
2022-12-27T14:13:54.643Z,3.70
2022-12-27T14:18:54.707Z,3.70
2022-12-27T14:23:54.681Z,3.60
2022-12-27T14:28:59.500Z,3.60
2022-12-27T14:33:54.772Z,3.70
2022-12-27T14:38:54.706Z,3.70
2022-12-27T14:43:54.674Z,3.80
2022-12-27T14:48:54.717Z,3.80
2022-12-27T14:53:54.666Z,4.50
2022-12-27T14:58:54.683Z,4.50
2022-12-27T15:03:54.865Z,6.10
2022-12-27T15:08:54.726Z,6.10
2022-12-27T15:13:54.672Z,6.20
2022-12-27T15:18:55.058Z,6.20
2022-12-27T15:23:54.743Z,16.60
2022-12-27T15:28:55.177Z,16.60
2022-12-27T15:33:54.871Z,3.60
2022-12-27T15:38:55.287Z,3.60
2022-12-27T15:43:57.346Z,3.90
2022-12-27T15:48:54.748Z,3.90
2022-12-27T15:53:54.788Z,4.90
2022-12-27T15:58:54.971Z,4.90
2022-12-27T16:03:54.927Z,5.50
2022-12-27T16:08:54.994Z,5.50
2022-12-27T16:13:54.716Z,17.60
2022-12-27T16:18:54.725Z,17.60
2022-12-27T16:23:54.764Z,33.90
2022-12-27T16:28:54.718Z,33.90
2022-12-27T16:33:54.768Z,7.60
2022-12-27T16:38:54.701Z,7.60
2022-12-27T16:43:54.758Z,22.00
2022-12-27T16:48:54.783Z,22.00
2022-12-27T16:53:54.820Z,29.20
2022-12-27T16:58:54.719Z,29.20
2022-12-27T17:03:54.738Z,7.10
2022-12-27T17:08:56.771Z,7.10
2022-12-27T17:13:54.769Z,4.10
2022-12-27T17:18:54.852Z,4.10
2022-12-27T17:23:54.759Z,4.20
2022-12-27T17:28:54.795Z,4.20
2022-12-27T17:33:54.746Z,3.30
2022-12-27T17:38:54.775Z,3.30
2022-12-27T17:43:54.942Z,4.30
2022-12-27T17:48:56.837Z,4.30
2022-12-27T17:58:59.731Z,8.20
2022-12-27T18:03:54.757Z,54.10
2022-12-27T18:08:54.998Z,54.10
2022-12-27T18:13:54.738Z,66.40
2022-12-27T18:18:54.954Z,66.40
2022-12-27T18:23:54.767Z,23.50
2022-12-27T18:28:55.046Z,23.50
2022-12-27T18:33:54.871Z,4.80
2022-12-27T18:38:54.999Z,4.80
2022-12-27T18:43:55.062Z,4.20
2022-12-27T18:48:54.987Z,4.20
2022-12-27T18:53:54.747Z,5.30
2022-12-27T18:58:55.021Z,5.30
2022-12-27T19:03:54.830Z,4.50
2022-12-27T19:08:55.020Z,4.50
2022-12-27T19:13:55.154Z,4.90
2022-12-27T19:18:55.065Z,4.90
2022-12-27T19:23:54.838Z,6.40
2022-12-27T19:28:55.029Z,6.40
2022-12-27T19:33:54.863Z,14.40
2022-12-27T19:38:54.797Z,14.40
2022-12-27T19:43:54.818Z,39.10
2022-12-27T19:49:31.530Z,39.10
2022-12-27T19:53:57.989Z,34.70
2022-12-27T19:58:55.337Z,34.70
2022-12-27T20:03:54.821Z,14.10
2022-12-27T20:08:55.116Z,14.10
2022-12-27T20:13:55.087Z,47.70
2022-12-27T20:18:54.824Z,47.70
2022-12-27T20:23:56.796Z,82.20
2022-12-27T20:28:54.909Z,82.20
2022-12-27T20:33:54.796Z,6.20
2022-12-27T20:38:54.875Z,6.20
2022-12-27T20:43:54.948Z,7.00
2022-12-27T20:48:54.900Z,7.00
2022-12-27T20:53:55.265Z,8.90
2022-12-27T20:58:54.820Z,8.90
2022-12-27T21:03:57.003Z,8.70
2022-12-27T21:08:57.729Z,8.70
2022-12-27T21:13:55.036Z,14.80
2022-12-27T21:18:54.877Z,14.80
2022-12-27T21:23:54.877Z,9.70
2022-12-27T21:28:54.818Z,9.70
2022-12-27T21:33:54.878Z,9.10
2022-12-27T21:38:54.860Z,9.10
2022-12-27T21:43:54.822Z,9.70
2022-12-27T21:48:54.904Z,9.70
2022-12-27T21:53:55.077Z,8.20
2022-12-27T22:03:55.001Z,9.40
2022-12-27T22:08:54.854Z,9.40
2022-12-27T22:13:55.006Z,10.40
2022-12-27T22:18:54.994Z,10.40
2022-12-27T22:23:55.314Z,11.40
2022-12-27T22:28:54.940Z,11.40
2022-12-27T22:33:57.382Z,11.50
2022-12-27T22:38:54.939Z,11.50
2022-12-27T22:43:54.894Z,13.90
2022-12-27T22:48:54.979Z,13.90
2022-12-27T22:53:54.868Z,11.70
2022-12-27T22:58:54.908Z,11.70
2022-12-27T23:03:54.891Z,13.40
2022-12-27T23:08:54.889Z,13.40
2022-12-27T23:13:54.919Z,9.80
2022-12-27T23:18:54.903Z,9.80
2022-12-27T23:23:54.898Z,10.40
2022-12-27T23:28:54.886Z,10.40
2022-12-27T23:33:54.894Z,11.30
2022-12-27T23:38:54.880Z,11.30
2022-12-27T23:43:55.988Z,10.60
2022-12-27T23:48:54.932Z,10.60
2022-12-27T23:53:54.910Z,11.10
2022-12-27T23:58:55.085Z,11.10
